Tropical Cyclones
[Index]
Main Index Home Page Stock Weather Photos Extreme Storms Discussion Storm News and Storm Chasing Reports Tropical Cyclones / Hurricanes / Typhoons Weather Data and Links Wild Fires / Bushfires Weather Observation Techniques Weather Picture Catalogue Tornado Pictures and Reports Stock Video Footage and DVDs for sale
Season 2004-2005 Tropical Cyclone HARVEY Track Map
Season 2004-2005 Summaries: [BoM-AU] [JTWC-AU] [JTWC-SIO] [JTWC-SPAC] [JTWC-SH]
<<- Previous TC | BoM 2004-2005 Season | Next TC ->>

click for intensity scale information  Lat/long Grid: Show Hide

 Date Labels: Show Hide

Bureau of Meteorology Tropical Cyclone Data

Name: HARVEY
Number: 884 / 200405_05

03 Feb 2005 12:00 UTC to 07 Feb 2005 18:00 UTC

    date/time    lat    long    hPa   cat  kts
2005-02-03 12   14.0   135.8   1004         20          
2005-02-03 18   13.5   136.8   1003         20          
2005-02-04 00   13.0   137.0   1005         20          
2005-02-04 06   13.0   137.0   1002         20          
2005-02-04 12   13.0   138.5   1003         20          
2005-02-04 18   13.2   139.0   1000         25          
2005-02-05 00   13.5   139.5    998         30          
2005-02-05 06   13.8   140.0    998         30          
2005-02-05 12   14.1   140.0    995    1    35          
2005-02-05 18   14.0   140.0    995    1    35          
2005-02-06 00   14.0   139.7    993    1    40          
2005-02-06 06   14.6   139.7    990    1    40          
2005-02-06 12   14.6   139.3    990    1    45          
2005-02-06 18   15.0   139.3    987    1    50          
2005-02-07 00   15.7   138.8    978    2    60          
2005-02-07 06   16.2   138.1    970    3    70          
2005-02-07 08   16.5   137.7    967    3    75          
2005-02-07 12   16.7   137.2    980    2    55          
2005-02-07 15   16.8   137.2    990    1    40          
2005-02-07 18   16.9   137.1    997         30          
Winds are 10-min average.

Tropical cyclone tracks developed by Michael Bath using data from the Bureau of Meteorology and Google Maps.


[Australian Severe Weather index] [Copyright Notice] [Email Contacts] [Search This Site] [Privacy Policy]
Document: tropical_cyclone_harvey.htm Updated: 29 June 2017